sensor_id;sensor_type;location;lat;lon;timestamp;temperature;humidity
13982;DHT22;7065;50.880;5.502;2022-12-18T00:00:31;-7.10;99.90
13982;DHT22;7065;50.880;5.502;2022-12-18T00:02:58;-7.10;99.90
13982;DHT22;7065;50.880;5.502;2022-12-18T00:05:23;-7.10;99.90
13982;DHT22;7065;50.880;5.502;2022-12-18T00:07:49;-7.00;99.90
13982;DHT22;7065;50.880;5.502;2022-12-18T00:10:15;-7.10;99.90
13982;DHT22;7065;50.880;5.502;2022-12-18T00:12:41;-7.10;99.90
13982;DHT22;7065;50.880;5.502;2022-12-18T00:15:06;-7.10;99.90
13982;DHT22;7065;50.880;5.502;2022-12-18T00:17:32;-7.10;99.90
13982;DHT22;7065;50.880;5.502;2022-12-18T00:19:58;-7.10;99.90
13982;DHT22;7065;50.880;5.502;2022-12-18T00:22:23;-7.20;99.90
13982;DHT22;7065;50.880;5.502;2022-12-18T00:24:50;-7.30;99.90
13982;DHT22;7065;50.880;5.502;2022-12-18T00:27:15;-7.30;99.90
13982;DHT22;7065;50.880;5.502;2022-12-18T00:29:41;-7.30;99.90
13982;DHT22;7065;50.880;5.502;2022-12-18T00:32:07;-7.30;99.90
13982;DHT22;7065;50.880;5.502;2022-12-18T00:34:32;-7.40;99.90
13982;DHT22;7065;50.880;5.502;2022-12-18T00:36:58;-7.40;99.90
13982;DHT22;7065;50.880;5.502;2022-12-18T00:39:24;-7.40;99.90
13982;DHT22;7065;50.880;5.502;2022-12-18T00:41:49;-7.30;99.90
13982;DHT22;7065;50.880;5.502;2022-12-18T00:44:33;-7.40;99.90
13982;DHT22;7065;50.880;5.502;2022-12-18T00:46:59;-7.30;99.90
13982;DHT22;7065;50.880;5.502;2022-12-18T00:49:25;-7.40;99.90
13982;DHT22;7065;50.880;5.502;2022-12-18T00:51:50;-7.30;99.90
13982;DHT22;7065;50.880;5.502;2022-12-18T00:54:17;-7.40;99.90
13982;DHT22;7065;50.880;5.502;2022-12-18T00:56:43;-7.40;99.90
13982;DHT22;7065;50.880;5.502;2022-12-18T00:59:09;-7.50;99.90
13982;DHT22;7065;50.880;5.502;2022-12-18T01:01:34;-7.50;99.90
13982;DHT22;7065;50.880;5.502;2022-12-18T01:04:02;-7.60;99.90
13982;DHT22;7065;50.880;5.502;2022-12-18T01:06:28;-7.60;99.90
13982;DHT22;7065;50.880;5.502;2022-12-18T01:08:53;-7.60;99.90
13982;DHT22;7065;50.880;5.502;2022-12-18T01:11:20;-7.60;99.90
13982;DHT22;7065;50.880;5.502;2022-12-18T01:13:46;-7.60;99.90
13982;DHT22;7065;50.880;5.502;2022-12-18T01:16:13;-7.70;99.90
13982;DHT22;7065;50.880;5.502;2022-12-18T01:18:39;-7.70;99.90
13982;DHT22;7065;50.880;5.502;2022-12-18T01:21:14;-7.70;99.90
13982;DHT22;7065;50.880;5.502;2022-12-18T01:23:40;-7.70;99.90
13982;DHT22;7065;50.880;5.502;2022-12-18T01:26:11;-7.70;99.90
13982;DHT22;7065;50.880;5.502;2022-12-18T01:28:37;-7.70;99.90
13982;DHT22;7065;50.880;5.502;2022-12-18T01:31:31;-7.70;99.90
13982;DHT22;7065;50.880;5.502;2022-12-18T01:34:00;-7.70;99.90
13982;DHT22;7065;50.880;5.502;2022-12-18T01:36:30;-7.70;99.90
13982;DHT22;7065;50.880;5.502;2022-12-18T01:38:58;-7.70;99.90
13982;DHT22;7065;50.880;5.502;2022-12-18T01:41:26;-7.80;99.90
13982;DHT22;7065;50.880;5.502;2022-12-18T01:47:36;-7.80;99.90
13982;DHT22;7065;50.880;5.502;2022-12-18T01:50:08;-7.80;99.90
13982;DHT22;7065;50.880;5.502;2022-12-18T01:52:34;-7.80;99.90
13982;DHT22;7065;50.880;5.502;2022-12-18T01:55:02;-7.80;99.90
13982;DHT22;7065;50.880;5.502;2022-12-18T01:57:28;-7.90;99.90
13982;DHT22;7065;50.880;5.502;2022-12-18T01:59:59;-7.90;99.90
13982;DHT22;7065;50.880;5.502;2022-12-18T02:02:28;-7.90;99.90
13982;DHT22;7065;50.880;5.502;2022-12-18T02:04:54;-7.90;99.90
13982;DHT22;7065;50.880;5.502;2022-12-18T02:10:32;-8.00;99.90
13982;DHT22;7065;50.880;5.502;2022-12-18T02:13:12;-8.10;99.90
13982;DHT22;7065;50.880;5.502;2022-12-18T02:15:46;-8.10;99.90
13982;DHT22;7065;50.880;5.502;2022-12-18T02:18:21;-8.10;99.90
13982;DHT22;7065;50.880;5.502;2022-12-18T02:28:42;-8.10;99.90
13982;DHT22;7065;50.880;5.502;2022-12-18T02:31:14;-8.10;99.90
13982;DHT22;7065;50.880;5.502;2022-12-18T02:33:43;-8.10;99.90
13982;DHT22;7065;50.880;5.502;2022-12-18T02:36:11;-8.10;99.90
13982;DHT22;7065;50.880;5.502;2022-12-18T02:38:38;-8.10;99.90
13982;DHT22;7065;50.880;5.502;2022-12-18T02:41:05;-8.20;99.90
13982;DHT22;7065;50.880;5.502;2022-12-18T02:43:32;-8.20;99.90
13982;DHT22;7065;50.880;5.502;2022-12-18T02:45:59;-8.30;99.90
13982;DHT22;7065;50.880;5.502;2022-12-18T02:48:33;-8.30;99.90
13982;DHT22;7065;50.880;5.502;2022-12-18T02:51:03;-8.30;99.90
13982;DHT22;7065;50.880;5.502;2022-12-18T02:56:15;-8.30;99.90
13982;DHT22;7065;50.880;5.502;2022-12-18T03:01:43;-8.20;99.90
13982;DHT22;7065;50.880;5.502;2022-12-18T03:04:26;-8.20;99.90
13982;DHT22;7065;50.880;5.502;2022-12-18T03:06:55;-8.20;99.90
13982;DHT22;7065;50.880;5.502;2022-12-18T03:09:36;-8.20;99.90
13982;DHT22;7065;50.880;5.502;2022-12-18T03:12:11;-8.20;99.90
13982;DHT22;7065;50.880;5.502;2022-12-18T03:15:04;-8.20;99.90
13982;DHT22;7065;50.880;5.502;2022-12-18T03:17:33;-8.20;99.90
13982;DHT22;7065;50.880;5.502;2022-12-18T03:20:04;-8.20;99.90
13982;DHT22;7065;50.880;5.502;2022-12-18T03:22:33;-8.10;99.90
13982;DHT22;7065;50.880;5.502;2022-12-18T03:25:02;-8.10;99.90
13982;DHT22;7065;50.880;5.502;2022-12-18T03:27:31;-8.10;99.90
13982;DHT22;7065;50.880;5.502;2022-12-18T03:30:04;-8.10;99.90
13982;DHT22;7065;50.880;5.502;2022-12-18T03:33:29;-8.10;99.90
13982;DHT22;7065;50.880;5.502;2022-12-18T03:35:47;-8.10;99.90
13982;DHT22;7065;50.880;5.502;2022-12-18T03:38:13;-8.10;99.90
13982;DHT22;7065;50.880;5.502;2022-12-18T03:43:30;-8.10;99.90
13982;DHT22;7065;50.880;5.502;2022-12-18T03:46:08;-8.00;99.90
13982;DHT22;7065;50.880;5.502;2022-12-18T03:48:55;-8.00;99.90
13982;DHT22;7065;50.880;5.502;2022-12-18T03:52:11;-8.10;99.90
13982;DHT22;7065;50.880;5.502;2022-12-18T03:54:16;-8.10;99.90
13982;DHT22;7065;50.880;5.502;2022-12-18T03:56:47;-8.20;99.90
13982;DHT22;7065;50.880;5.502;2022-12-18T03:59:15;-8.20;99.90
13982;DHT22;7065;50.880;5.502;2022-12-18T04:01:46;-8.30;99.90
13982;DHT22;7065;50.880;5.502;2022-12-18T04:04:13;-8.40;99.90
13982;DHT22;7065;50.880;5.502;2022-12-18T04:06:41;-8.40;99.90
13982;DHT22;7065;50.880;5.502;2022-12-18T04:09:07;-8.40;99.90
13982;DHT22;7065;50.880;5.502;2022-12-18T04:11:33;-8.40;99.90
13982;DHT22;7065;50.880;5.502;2022-12-18T04:13:59;-8.40;99.90
13982;DHT22;7065;50.880;5.502;2022-12-18T04:16:26;-8.40;99.90
13982;DHT22;7065;50.880;5.502;2022-12-18T04:18:52;-8.40;99.90
13982;DHT22;7065;50.880;5.502;2022-12-18T04:21:18;-8.40;99.90
13982;DHT22;7065;50.880;5.502;2022-12-18T04:23:45;-8.40;99.90
13982;DHT22;7065;50.880;5.502;2022-12-18T04:26:10;-8.40;99.90
13982;DHT22;7065;50.880;5.502;2022-12-18T04:28:36;-8.40;99.90
13982;DHT22;7065;50.880;5.502;2022-12-18T04:31:02;-8.50;99.90
13982;DHT22;7065;50.880;5.502;2022-12-18T04:33:28;-8.50;99.90
13982;DHT22;7065;50.880;5.502;2022-12-18T04:35:53;-8.50;99.90
13982;DHT22;7065;50.880;5.502;2022-12-18T04:38:19;-8.50;99.90
13982;DHT22;7065;50.880;5.502;2022-12-18T04:40:45;-8.50;99.90
13982;DHT22;7065;50.880;5.502;2022-12-18T04:43:11;-8.40;99.90
13982;DHT22;7065;50.880;5.502;2022-12-18T04:45:37;-8.40;99.90
13982;DHT22;7065;50.880;5.502;2022-12-18T04:48:03;-8.40;99.90
13982;DHT22;7065;50.880;5.502;2022-12-18T04:50:29;-8.40;99.90
13982;DHT22;7065;50.880;5.502;2022-12-18T04:52:56;-8.40;99.90
13982;DHT22;7065;50.880;5.502;2022-12-18T04:55:22;-8.40;99.90
13982;DHT22;7065;50.880;5.502;2022-12-18T04:57:48;-8.50;99.90
13982;DHT22;7065;50.880;5.502;2022-12-18T05:00:14;-8.50;99.90
13982;DHT22;7065;50.880;5.502;2022-12-18T05:02:39;-8.50;99.90
13982;DHT22;7065;50.880;5.502;2022-12-18T05:05:07;-8.50;99.90
13982;DHT22;7065;50.880;5.502;2022-12-18T05:07:33;-8.50;99.90
13982;DHT22;7065;50.880;5.502;2022-12-18T05:09:58;-8.50;99.90
13982;DHT22;7065;50.880;5.502;2022-12-18T05:12:24;-8.50;99.90
13982;DHT22;7065;50.880;5.502;2022-12-18T05:14:50;-8.50;99.90
13982;DHT22;7065;50.880;5.502;2022-12-18T05:17:15;-8.50;99.90
13982;DHT22;7065;50.880;5.502;2022-12-18T05:19:41;-8.60;99.90
13982;DHT22;7065;50.880;5.502;2022-12-18T05:22:08;-8.60;99.90
13982;DHT22;7065;50.880;5.502;2022-12-18T05:24:34;-8.60;99.90
13982;DHT22;7065;50.880;5.502;2022-12-18T05:26:59;-8.60;99.90
13982;DHT22;7065;50.880;5.502;2022-12-18T05:29:25;-8.60;99.90
13982;DHT22;7065;50.880;5.502;2022-12-18T05:31:51;-8.50;99.90
13982;DHT22;7065;50.880;5.502;2022-12-18T05:34:17;-8.50;99.90
13982;DHT22;7065;50.880;5.502;2022-12-18T05:36:42;-8.50;99.90
13982;DHT22;7065;50.880;5.502;2022-12-18T05:39:08;-8.50;99.90
13982;DHT22;7065;50.880;5.502;2022-12-18T05:41:34;-8.60;99.90
13982;DHT22;7065;50.880;5.502;2022-12-18T05:43:59;-8.60;99.90
13982;DHT22;7065;50.880;5.502;2022-12-18T05:46:26;-8.60;99.90
13982;DHT22;7065;50.880;5.502;2022-12-18T05:48:51;-8.50;99.90
13982;DHT22;7065;50.880;5.502;2022-12-18T05:51:20;-8.50;99.90
13982;DHT22;7065;50.880;5.502;2022-12-18T05:53:47;-8.50;99.90
13982;DHT22;7065;50.880;5.502;2022-12-18T05:56:22;-8.50;99.90
13982;DHT22;7065;50.880;5.502;2022-12-18T05:58:51;-8.50;99.90
13982;DHT22;7065;50.880;5.502;2022-12-18T06:01:21;-8.50;99.90
13982;DHT22;7065;50.880;5.502;2022-12-18T06:03:47;-8.60;99.90
13982;DHT22;7065;50.880;5.502;2022-12-18T06:06:19;-8.60;99.90
13982;DHT22;7065;50.880;5.502;2022-12-18T06:08:45;-8.60;99.90
13982;DHT22;7065;50.880;5.502;2022-12-18T06:11:12;-8.50;99.90
13982;DHT22;7065;50.880;5.502;2022-12-18T06:13:38;-8.50;99.90
13982;DHT22;7065;50.880;5.502;2022-12-18T06:16:05;-8.50;99.90
13982;DHT22;7065;50.880;5.502;2022-12-18T06:18:31;-8.50;99.90
13982;DHT22;7065;50.880;5.502;2022-12-18T06:20:58;-8.60;99.90
13982;DHT22;7065;50.880;5.502;2022-12-18T06:23:24;-8.60;99.90
13982;DHT22;7065;50.880;5.502;2022-12-18T06:25:50;-8.70;99.90
13982;DHT22;7065;50.880;5.502;2022-12-18T06:28:16;-8.70;99.90
13982;DHT22;7065;50.880;5.502;2022-12-18T06:30:45;-8.60;99.90
13982;DHT22;7065;50.880;5.502;2022-12-18T06:33:11;-8.70;99.90
13982;DHT22;7065;50.880;5.502;2022-12-18T06:35:37;-8.70;99.90
13982;DHT22;7065;50.880;5.502;2022-12-18T06:38:03;-8.70;99.90
13982;DHT22;7065;50.880;5.502;2022-12-18T06:40:29;-8.70;99.90
13982;DHT22;7065;50.880;5.502;2022-12-18T06:42:54;-8.70;99.90
13982;DHT22;7065;50.880;5.502;2022-12-18T06:45:20;-8.80;99.90
13982;DHT22;7065;50.880;5.502;2022-12-18T06:47:46;-8.80;99.90
13982;DHT22;7065;50.880;5.502;2022-12-18T06:50:12;-8.80;99.90
13982;DHT22;7065;50.880;5.502;2022-12-18T06:52:38;-8.80;99.90
13982;DHT22;7065;50.880;5.502;2022-12-18T06:55:06;-8.90;99.90
13982;DHT22;7065;50.880;5.502;2022-12-18T06:57:32;-8.80;99.90
13982;DHT22;7065;50.880;5.502;2022-12-18T06:59:58;-8.90;99.90
13982;DHT22;7065;50.880;5.502;2022-12-18T07:02:23;-8.80;99.90
13982;DHT22;7065;50.880;5.502;2022-12-18T07:04:49;-8.80;99.90
13982;DHT22;7065;50.880;5.502;2022-12-18T07:07:15;-8.80;99.90
13982;DHT22;7065;50.880;5.502;2022-12-18T07:09:41;-8.90;99.90
13982;DHT22;7065;50.880;5.502;2022-12-18T07:12:06;-8.80;99.90
13982;DHT22;7065;50.880;5.502;2022-12-18T07:14:33;-8.80;99.90
13982;DHT22;7065;50.880;5.502;2022-12-18T07:16:59;-8.80;99.90
13982;DHT22;7065;50.880;5.502;2022-12-18T07:19:24;-8.80;99.90
13982;DHT22;7065;50.880;5.502;2022-12-18T07:21:51;-8.80;99.90
13982;DHT22;7065;50.880;5.502;2022-12-18T07:24:17;-8.80;99.90
13982;DHT22;7065;50.880;5.502;2022-12-18T07:26:45;-8.80;99.90
13982;DHT22;7065;50.880;5.502;2022-12-18T07:29:11;-8.80;99.90
13982;DHT22;7065;50.880;5.502;2022-12-18T07:31:37;-8.70;99.90
13982;DHT22;7065;50.880;5.502;2022-12-18T07:34:02;-8.70;99.90
13982;DHT22;7065;50.880;5.502;2022-12-18T07:36:28;-8.70;99.90
13982;DHT22;7065;50.880;5.502;2022-12-18T07:38:54;-8.70;99.90
13982;DHT22;7065;50.880;5.502;2022-12-18T07:41:20;-8.70;99.90
13982;DHT22;7065;50.880;5.502;2022-12-18T07:43:47;-8.70;99.90
13982;DHT22;7065;50.880;5.502;2022-12-18T07:46:13;-8.70;99.90
13982;DHT22;7065;50.880;5.502;2022-12-18T07:48:41;-8.60;99.90
13982;DHT22;7065;50.880;5.502;2022-12-18T07:51:07;-8.60;99.90
13982;DHT22;7065;50.880;5.502;2022-12-18T07:53:34;-8.50;99.90
13982;DHT22;7065;50.880;5.502;2022-12-18T07:56:03;-8.40;99.90
13982;DHT22;7065;50.880;5.502;2022-12-18T07:58:29;-8.40;99.90
13982;DHT22;7065;50.880;5.502;2022-12-18T08:01:10;-8.40;99.90
13982;DHT22;7065;50.880;5.502;2022-12-18T08:03:38;-8.50;99.90
13982;DHT22;7065;50.880;5.502;2022-12-18T08:06:06;-8.50;99.90
13982;DHT22;7065;50.880;5.502;2022-12-18T08:08:33;-8.40;99.90
13982;DHT22;7065;50.880;5.502;2022-12-18T08:10:59;-8.40;99.90
13982;DHT22;7065;50.880;5.502;2022-12-18T08:13:25;-8.40;99.90
13982;DHT22;7065;50.880;5.502;2022-12-18T08:16:02;-8.30;99.90
13982;DHT22;7065;50.880;5.502;2022-12-18T08:18:28;-8.30;99.90
13982;DHT22;7065;50.880;5.502;2022-12-18T08:20:54;-8.20;99.90
13982;DHT22;7065;50.880;5.502;2022-12-18T08:23:20;-8.20;99.90
13982;DHT22;7065;50.880;5.502;2022-12-18T08:25:47;-8.10;99.90
13982;DHT22;7065;50.880;5.502;2022-12-18T08:28:13;-8.00;99.90
13982;DHT22;7065;50.880;5.502;2022-12-18T08:30:39;-8.00;99.90
13982;DHT22;7065;50.880;5.502;2022-12-18T08:33:04;-7.90;99.90
13982;DHT22;7065;50.880;5.502;2022-12-18T08:35:30;-7.80;99.90
13982;DHT22;7065;50.880;5.502;2022-12-18T08:37:59;-7.70;99.90
13982;DHT22;7065;50.880;5.502;2022-12-18T08:40:25;-7.60;99.90
13982;DHT22;7065;50.880;5.502;2022-12-18T08:42:51;-7.50;99.90
13982;DHT22;7065;50.880;5.502;2022-12-18T08:45:35;-7.40;99.90
13982;DHT22;7065;50.880;5.502;2022-12-18T08:48:00;-7.30;99.90
13982;DHT22;7065;50.880;5.502;2022-12-18T08:50:26;-7.20;99.90
13982;DHT22;7065;50.880;5.502;2022-12-18T08:52:52;-7.10;99.90
13982;DHT22;7065;50.880;5.502;2022-12-18T08:55:17;-7.00;99.90
13982;DHT22;7065;50.880;5.502;2022-12-18T08:57:43;-6.90;99.90
13982;DHT22;7065;50.880;5.502;2022-12-18T09:00:13;-6.70;99.90
13982;DHT22;7065;50.880;5.502;2022-12-18T09:02:39;-6.60;99.90
13982;DHT22;7065;50.880;5.502;2022-12-18T09:05:05;-6.50;99.90
13982;DHT22;7065;50.880;5.502;2022-12-18T09:07:31;-6.40;99.90
13982;DHT22;7065;50.880;5.502;2022-12-18T09:09:57;-6.30;99.90
13982;DHT22;7065;50.880;5.502;2022-12-18T09:12:22;-6.20;99.90
13982;DHT22;7065;50.880;5.502;2022-12-18T09:14:48;-6.10;99.90
13982;DHT22;7065;50.880;5.502;2022-12-18T09:17:13;-6.00;99.90
13982;DHT22;7065;50.880;5.502;2022-12-18T09:19:39;-6.00;99.90
13982;DHT22;7065;50.880;5.502;2022-12-18T09:22:05;-5.90;99.90
13982;DHT22;7065;50.880;5.502;2022-12-18T09:24:31;-5.80;99.90
13982;DHT22;7065;50.880;5.502;2022-12-18T09:26:57;-5.70;99.90
13982;DHT22;7065;50.880;5.502;2022-12-18T09:29:22;-5.70;99.90
13982;DHT22;7065;50.880;5.502;2022-12-18T09:31:49;-5.60;99.90
13982;DHT22;7065;50.880;5.502;2022-12-18T09:34:15;-5.50;99.90
13982;DHT22;7065;50.880;5.502;2022-12-18T09:36:42;-5.50;99.90
13982;DHT22;7065;50.880;5.502;2022-12-18T09:39:07;-5.40;99.90
13982;DHT22;7065;50.880;5.502;2022-12-18T09:41:43;-5.30;99.90
13982;DHT22;7065;50.880;5.502;2022-12-18T09:44:23;-5.30;99.90
13982;DHT22;7065;50.880;5.502;2022-12-18T09:47:16;-5.20;99.90
13982;DHT22;7065;50.880;5.502;2022-12-18T09:49:48;-5.10;99.90
13982;DHT22;7065;50.880;5.502;2022-12-18T09:52:25;-5.00;99.90
13982;DHT22;7065;50.880;5.502;2022-12-18T09:55:19;-5.00;99.90
13982;DHT22;7065;50.880;5.502;2022-12-18T09:57:47;-4.90;99.90
13982;DHT22;7065;50.880;5.502;2022-12-18T10:00:25;-4.80;99.90
13982;DHT22;7065;50.880;5.502;2022-12-18T10:03:01;-4.70;99.90
13982;DHT22;7065;50.880;5.502;2022-12-18T10:11:11;-4.50;99.90
13982;DHT22;7065;50.880;5.502;2022-12-18T10:13:45;-4.40;99.90
13982;DHT22;7065;50.880;5.502;2022-12-18T10:16:35;-4.30;99.90
13982;DHT22;7065;50.880;5.502;2022-12-18T10:19:33;-4.20;99.90
13982;DHT22;7065;50.880;5.502;2022-12-18T10:22:26;-4.20;99.90
13982;DHT22;7065;50.880;5.502;2022-12-18T10:25:03;-4.10;99.90
13982;DHT22;7065;50.880;5.502;2022-12-18T10:27:31;-4.00;99.90
13982;DHT22;7065;50.880;5.502;2022-12-18T10:29:58;-3.90;99.90
13982;DHT22;7065;50.880;5.502;2022-12-18T10:32:26;-3.80;99.90
13982;DHT22;7065;50.880;5.502;2022-12-18T10:34:54;-3.80;99.90
13982;DHT22;7065;50.880;5.502;2022-12-18T10:37:23;-3.70;99.90
13982;DHT22;7065;50.880;5.502;2022-12-18T10:40:17;-3.70;99.90
13982;DHT22;7065;50.880;5.502;2022-12-18T10:42:44;-3.60;99.90
13982;DHT22;7065;50.880;5.502;2022-12-18T10:45:15;-3.50;99.90
13982;DHT22;7065;50.880;5.502;2022-12-18T10:47:49;-3.50;99.90
13982;DHT22;7065;50.880;5.502;2022-12-18T10:50:33;-3.50;99.90
13982;DHT22;7065;50.880;5.502;2022-12-18T10:53:01;-3.40;99.90
13982;DHT22;7065;50.880;5.502;2022-12-18T10:55:33;-3.30;99.90
13982;DHT22;7065;50.880;5.502;2022-12-18T11:03:36;-3.10;99.90
13982;DHT22;7065;50.880;5.502;2022-12-18T11:06:08;-3.10;99.90
13982;DHT22;7065;50.880;5.502;2022-12-18T11:08:34;-3.00;99.90
13982;DHT22;7065;50.880;5.502;2022-12-18T11:11:01;-3.00;99.90
13982;DHT22;7065;50.880;5.502;2022-12-18T11:13:29;-2.90;99.90
13982;DHT22;7065;50.880;5.502;2022-12-18T11:15:55;-2.80;99.90
13982;DHT22;7065;50.880;5.502;2022-12-18T11:18:30;-2.70;99.90
13982;DHT22;7065;50.880;5.502;2022-12-18T11:23:26;-2.60;99.90
13982;DHT22;7065;50.880;5.502;2022-12-18T11:25:57;-2.60;99.90
13982;DHT22;7065;50.880;5.502;2022-12-18T11:36:21;-2.40;99.90
13982;DHT22;7065;50.880;5.502;2022-12-18T11:38:49;-2.30;99.90
13982;DHT22;7065;50.880;5.502;2022-12-18T11:50:00;-2.20;99.90
13982;DHT22;7065;50.880;5.502;2022-12-18T11:52:36;-2.10;99.90
13982;DHT22;7065;50.880;5.502;2022-12-18T11:55:13;-2.10;99.90
13982;DHT22;7065;50.880;5.502;2022-12-18T12:00:27;-2.00;99.90
13982;DHT22;7065;50.880;5.502;2022-12-18T12:14:23;-1.70;99.90
13982;DHT22;7065;50.880;5.502;2022-12-18T12:16:57;-1.60;99.90
13982;DHT22;7065;50.880;5.502;2022-12-18T12:30:53;-1.40;99.90
13982;DHT22;7065;50.880;5.502;2022-12-18T12:33:40;-1.50;99.90
13982;DHT22;7065;50.880;5.502;2022-12-18T12:36:16;-1.40;99.90
13982;DHT22;7065;50.880;5.502;2022-12-18T12:38:48;-1.40;99.90
13982;DHT22;7065;50.880;5.502;2022-12-18T12:41:20;-1.30;99.90
13982;DHT22;7065;50.880;5.502;2022-12-18T12:44:08;-1.30;99.90
13982;DHT22;7065;50.880;5.502;2022-12-18T12:46:40;-1.30;99.90
13982;DHT22;7065;50.880;5.502;2022-12-18T12:49:17;-1.30;99.90
13982;DHT22;7065;50.880;5.502;2022-12-18T12:51:47;-1.20;99.90
13982;DHT22;7065;50.880;5.502;2022-12-18T12:54:21;-1.20;99.90
13982;DHT22;7065;50.880;5.502;2022-12-18T13:03:02;-1.10;99.90
13982;DHT22;7065;50.880;5.502;2022-12-18T13:08:03;-1.00;99.90
13982;DHT22;7065;50.880;5.502;2022-12-18T13:10:40;-1.10;99.90
13982;DHT22;7065;50.880;5.502;2022-12-18T13:13:14;-1.00;99.90
13982;DHT22;7065;50.880;5.502;2022-12-18T13:15:47;-1.00;99.90
13982;DHT22;7065;50.880;5.502;2022-12-18T13:18:22;-1.00;99.90
13982;DHT22;7065;50.880;5.502;2022-12-18T13:21:03;-1.00;99.90
13982;DHT22;7065;50.880;5.502;2022-12-18T13:23:37;-0.90;99.90
13982;DHT22;7065;50.880;5.502;2022-12-18T13:34:15;-0.80;99.90
13982;DHT22;7065;50.880;5.502;2022-12-18T13:36:41;-0.80;99.90
13982;DHT22;7065;50.880;5.502;2022-12-18T13:39:33;-0.70;99.90
13982;DHT22;7065;50.880;5.502;2022-12-18T13:44:38;-0.70;99.90
13982;DHT22;7065;50.880;5.502;2022-12-18T13:47:34;-0.70;99.90
13982;DHT22;7065;50.880;5.502;2022-12-18T13:50:02;-0.70;99.90
13982;DHT22;7065;50.880;5.502;2022-12-18T13:52:36;-0.70;99.90
13982;DHT22;7065;50.880;5.502;2022-12-18T13:55:06;-0.60;99.90
13982;DHT22;7065;50.880;5.502;2022-12-18T13:57:35;-0.60;99.90
13982;DHT22;7065;50.880;5.502;2022-12-18T14:02:49;-0.60;99.90
13982;DHT22;7065;50.880;5.502;2022-12-18T14:05:22;-0.60;99.90
13982;DHT22;7065;50.880;5.502;2022-12-18T14:07:49;-0.60;99.90
13982;DHT22;7065;50.880;5.502;2022-12-18T14:10:16;-0.60;99.90
13982;DHT22;7065;50.880;5.502;2022-12-18T14:12:47;-0.70;99.90
13982;DHT22;7065;50.880;5.502;2022-12-18T14:17:52;-0.70;99.90
13982;DHT22;7065;50.880;5.502;2022-12-18T14:20:18;-0.70;99.90
13982;DHT22;7065;50.880;5.502;2022-12-18T14:22:49;-0.70;99.90
13982;DHT22;7065;50.880;5.502;2022-12-18T14:25:21;-0.70;99.90
13982;DHT22;7065;50.880;5.502;2022-12-18T14:27:53;-0.70;99.90
13982;DHT22;7065;50.880;5.502;2022-12-18T14:30:23;-0.80;99.90
13982;DHT22;7065;50.880;5.502;2022-12-18T14:33:09;-0.80;99.90
13982;DHT22;7065;50.880;5.502;2022-12-18T14:35:38;-0.80;99.90
13982;DHT22;7065;50.880;5.502;2022-12-18T14:38:15;-0.80;99.90
13982;DHT22;7065;50.880;5.502;2022-12-18T14:40:43;-0.80;99.90
13982;DHT22;7065;50.880;5.502;2022-12-18T14:43:13;-0.80;99.90
13982;DHT22;7065;50.880;5.502;2022-12-18T14:45:41;-0.80;99.90
13982;DHT22;7065;50.880;5.502;2022-12-18T14:50:44;-0.90;99.90
13982;DHT22;7065;50.880;5.502;2022-12-18T14:53:23;-0.90;99.90
13982;DHT22;7065;50.880;5.502;2022-12-18T14:55:53;-0.90;99.90
13982;DHT22;7065;50.880;5.502;2022-12-18T14:58:18;-0.90;99.90
13982;DHT22;7065;50.880;5.502;2022-12-18T15:00:44;-0.90;99.90
13982;DHT22;7065;50.880;5.502;2022-12-18T15:03:12;-0.90;99.90
13982;DHT22;7065;50.880;5.502;2022-12-18T15:05:39;-1.00;99.90
13982;DHT22;7065;50.880;5.502;2022-12-18T15:08:34;-1.00;99.90
13982;DHT22;7065;50.880;5.502;2022-12-18T15:11:01;-1.00;99.90
13982;DHT22;7065;50.880;5.502;2022-12-18T15:13:27;-1.00;99.90
13982;DHT22;7065;50.880;5.502;2022-12-18T15:15:55;-1.10;99.90
13982;DHT22;7065;50.880;5.502;2022-12-18T15:18:30;-1.10;99.90
13982;DHT22;7065;50.880;5.502;2022-12-18T15:21:00;-1.10;99.90
13982;DHT22;7065;50.880;5.502;2022-12-18T15:26:12;-1.20;99.90
13982;DHT22;7065;50.880;5.502;2022-12-18T15:28:47;-1.20;99.90
13982;DHT22;7065;50.880;5.502;2022-12-18T15:33:41;-1.30;99.90
13982;DHT22;7065;50.880;5.502;2022-12-18T15:36:12;-1.30;99.90
13982;DHT22;7065;50.880;5.502;2022-12-18T15:38:39;-1.30;99.90
13982;DHT22;7065;50.880;5.502;2022-12-18T15:41:05;-1.30;99.90
13982;DHT22;7065;50.880;5.502;2022-12-18T15:43:32;-1.30;99.90
13982;DHT22;7065;50.880;5.502;2022-12-18T15:46:06;-1.30;99.90
13982;DHT22;7065;50.880;5.502;2022-12-18T15:48:34;-1.30;99.90
13982;DHT22;7065;50.880;5.502;2022-12-18T15:51:00;-1.30;99.90
13982;DHT22;7065;50.880;5.502;2022-12-18T15:53:30;-1.30;99.90
13982;DHT22;7065;50.880;5.502;2022-12-18T15:55:57;-1.30;99.90
13982;DHT22;7065;50.880;5.502;2022-12-18T15:58:41;-1.30;99.90
13982;DHT22;7065;50.880;5.502;2022-12-18T16:01:09;-1.30;99.90
13982;DHT22;7065;50.880;5.502;2022-12-18T16:03:36;-1.30;99.90
13982;DHT22;7065;50.880;5.502;2022-12-18T16:06:02;-1.30;99.90
13982;DHT22;7065;50.880;5.502;2022-12-18T16:08:29;-1.30;99.90
13982;DHT22;7065;50.880;5.502;2022-12-18T16:10:56;-1.30;99.90
13982;DHT22;7065;50.880;5.502;2022-12-18T16:13:22;-1.30;99.90
13982;DHT22;7065;50.880;5.502;2022-12-18T16:15:48;-1.30;99.90
13982;DHT22;7065;50.880;5.502;2022-12-18T16:18:14;-1.30;99.90
13982;DHT22;7065;50.880;5.502;2022-12-18T16:20:39;-1.30;99.90
13982;DHT22;7065;50.880;5.502;2022-12-18T16:23:06;-1.30;99.90
13982;DHT22;7065;50.880;5.502;2022-12-18T16:25:33;-1.30;99.90
13982;DHT22;7065;50.880;5.502;2022-12-18T16:27:58;-1.30;99.90
13982;DHT22;7065;50.880;5.502;2022-12-18T16:30:29;-1.30;99.90
13982;DHT22;7065;50.880;5.502;2022-12-18T16:32:56;-1.30;99.90
13982;DHT22;7065;50.880;5.502;2022-12-18T16:35:25;-1.30;99.90
13982;DHT22;7065;50.880;5.502;2022-12-18T16:37:51;-1.30;99.90
13982;DHT22;7065;50.880;5.502;2022-12-18T16:40:17;-1.30;99.90
13982;DHT22;7065;50.880;5.502;2022-12-18T16:42:45;-1.30;99.90
13982;DHT22;7065;50.880;5.502;2022-12-18T16:45:13;-1.20;99.90
13982;DHT22;7065;50.880;5.502;2022-12-18T16:47:39;-1.20;99.90
13982;DHT22;7065;50.880;5.502;2022-12-18T16:50:06;-1.20;99.90
13982;DHT22;7065;50.880;5.502;2022-12-18T16:52:32;-1.20;99.90
13982;DHT22;7065;50.880;5.502;2022-12-18T16:54:57;-1.20;99.90
13982;DHT22;7065;50.880;5.502;2022-12-18T16:57:23;-1.10;99.90
13982;DHT22;7065;50.880;5.502;2022-12-18T16:59:49;-1.10;99.90
13982;DHT22;7065;50.880;5.502;2022-12-18T17:02:23;-1.10;99.90
13982;DHT22;7065;50.880;5.502;2022-12-18T17:04:52;-1.10;99.90
13982;DHT22;7065;50.880;5.502;2022-12-18T17:07:18;-1.00;99.90
13982;DHT22;7065;50.880;5.502;2022-12-18T17:09:44;-1.00;99.90
13982;DHT22;7065;50.880;5.502;2022-12-18T17:12:10;-0.90;99.90
13982;DHT22;7065;50.880;5.502;2022-12-18T17:14:36;-0.90;99.90
13982;DHT22;7065;50.880;5.502;2022-12-18T17:17:02;-0.90;99.90
13982;DHT22;7065;50.880;5.502;2022-12-18T17:19:28;-0.90;99.90
13982;DHT22;7065;50.880;5.502;2022-12-18T17:21:54;-0.80;99.90
13982;DHT22;7065;50.880;5.502;2022-12-18T17:24:20;-0.80;99.90
13982;DHT22;7065;50.880;5.502;2022-12-18T17:26:47;-0.70;99.90
13982;DHT22;7065;50.880;5.502;2022-12-18T17:29:15;-0.70;99.90
13982;DHT22;7065;50.880;5.502;2022-12-18T17:31:41;-0.60;99.90
13982;DHT22;7065;50.880;5.502;2022-12-18T17:34:09;-0.60;99.90
13982;DHT22;7065;50.880;5.502;2022-12-18T17:36:35;-0.50;99.90
13982;DHT22;7065;50.880;5.502;2022-12-18T17:39:01;-0.50;99.90
13982;DHT22;7065;50.880;5.502;2022-12-18T17:41:28;-0.50;99.90
13982;DHT22;7065;50.880;5.502;2022-12-18T17:43:59;-0.40;99.90
13982;DHT22;7065;50.880;5.502;2022-12-18T17:46:27;-0.40;99.90
13982;DHT22;7065;50.880;5.502;2022-12-18T17:48:58;-0.30;99.90